createdAt,value
2023-06-19T04:15:08.946Z,384.00
2023-06-19T04:16:08.966Z,388.00
2023-06-19T04:17:08.932Z,392.00
2023-06-19T04:18:08.972Z,396.00
2023-06-19T04:19:08.886Z,396.00
2023-06-19T04:20:08.870Z,400.00
2023-06-19T04:21:08.877Z,400.00
2023-06-19T04:22:08.869Z,404.00
2023-06-19T04:23:08.867Z,404.00
2023-06-19T04:24:08.921Z,400.00
2023-06-19T04:25:08.856Z,400.00
2023-06-19T04:26:08.943Z,400.00
2023-06-19T04:27:08.877Z,404.00
2023-06-19T04:28:08.883Z,412.00
2023-06-19T04:29:08.852Z,420.00
2023-06-19T04:30:08.923Z,428.00
2023-06-19T04:31:08.873Z,436.00
2023-06-19T04:32:08.940Z,444.00
2023-06-19T04:33:08.978Z,452.00
2023-06-19T04:34:08.885Z,456.00
2023-06-19T04:35:08.832Z,476.00
2023-06-19T04:36:08.850Z,488.00
2023-06-19T04:37:08.831Z,508.00
2023-06-19T04:38:08.846Z,528.00
2023-06-19T04:39:08.837Z,544.00
2023-06-19T04:40:08.861Z,560.00
2023-06-19T04:41:08.849Z,572.00
2023-06-19T04:42:08.854Z,584.00
2023-06-19T04:43:08.832Z,588.00
2023-06-19T04:44:08.824Z,600.00
2023-06-19T04:45:08.865Z,612.00
2023-06-19T04:46:08.912Z,624.00
2023-06-19T04:47:08.841Z,636.00
2023-06-19T04:48:08.845Z,652.00
2023-06-19T04:49:08.815Z,676.00
2023-06-19T04:50:08.862Z,704.00
2023-06-19T04:51:08.830Z,736.00
2023-06-19T04:52:08.821Z,764.00
2023-06-19T04:53:08.859Z,792.00
2023-06-19T04:54:08.833Z,816.00
2023-06-19T04:55:08.845Z,840.00
2023-06-19T04:56:08.873Z,860.00
2023-06-19T04:57:08.822Z,876.00
2023-06-19T04:58:08.870Z,900.00
2023-06-19T04:59:08.819Z,920.00
2023-06-19T05:00:08.838Z,940.00
2023-06-19T05:01:08.862Z,960.00
2023-06-19T05:02:08.814Z,984.00
2023-06-19T05:03:08.887Z,1012.00
2023-06-19T05:04:08.919Z,1040.00
2023-06-19T05:05:08.815Z,1080.00
2023-06-19T05:06:08.831Z,1128.00
2023-06-19T05:07:08.837Z,1184.00
2023-06-19T05:08:08.818Z,1232.00
2023-06-19T05:09:08.832Z,1276.00
2023-06-19T05:10:08.853Z,1316.00
2023-06-19T05:11:08.844Z,1352.00
2023-06-19T05:12:08.821Z,1392.00
2023-06-19T05:13:08.835Z,1396.00
2023-06-19T05:14:08.823Z,1412.00
2023-06-19T05:15:08.852Z,1432.00
2023-06-19T05:16:08.878Z,1452.00
2023-06-19T05:17:08.849Z,1448.00
2023-06-19T05:18:08.844Z,1456.00
2023-06-19T05:19:08.825Z,1472.00
2023-06-19T05:20:08.813Z,1452.00
2023-06-19T05:21:08.838Z,1460.00
2023-06-19T05:22:08.823Z,1488.00
2023-06-19T05:23:08.856Z,1516.00
2023-06-19T05:24:08.902Z,1512.00
2023-06-19T05:25:08.858Z,1568.00
2023-06-19T05:26:08.832Z,1564.00
2023-06-19T05:27:08.837Z,1576.00
2023-06-19T05:28:08.841Z,1600.00
2023-06-19T05:29:08.834Z,1640.00
2023-06-19T05:30:08.850Z,1628.00
2023-06-19T05:31:08.851Z,1664.00
2023-06-19T05:32:08.833Z,1656.00
2023-06-19T05:33:08.826Z,1668.00
2023-06-19T05:34:08.808Z,1736.00
2023-06-19T05:35:08.962Z,1736.00
2023-06-19T05:36:08.835Z,1772.00
2023-06-19T05:37:08.826Z,1804.00
2023-06-19T05:38:08.852Z,1820.00
2023-06-19T05:39:08.835Z,1856.00
2023-06-19T05:40:08.824Z,1860.00
2023-06-19T05:41:08.821Z,1848.00
2023-06-19T05:42:08.845Z,1852.00
2023-06-19T05:43:08.824Z,1904.00
2023-06-19T05:44:08.829Z,1904.00
2023-06-19T05:45:08.862Z,1916.00
2023-06-19T05:46:08.869Z,1944.00
2023-06-19T05:47:08.837Z,1972.00
2023-06-19T05:48:08.964Z,1996.00
2023-06-19T05:49:08.808Z,2028.00
2023-06-19T05:50:08.835Z,2072.00
2023-06-19T05:51:08.880Z,1980.00
2023-06-19T05:52:08.839Z,2108.00
2023-06-19T05:53:08.830Z,2136.00
2023-06-19T05:54:11.067Z,2164.00
2023-06-19T05:55:08.987Z,2188.00
2023-06-19T05:56:08.934Z,2248.00
2023-06-19T05:57:09.009Z,2280.00
2023-06-19T05:58:08.817Z,2296.00
2023-06-19T05:59:09.007Z,2372.00
2023-06-19T06:00:08.848Z,2408.00
2023-06-19T06:01:08.971Z,2476.00
2023-06-19T06:02:08.888Z,2500.00
2023-06-19T06:03:08.868Z,2492.00
2023-06-19T06:04:08.962Z,2504.00
2023-06-19T06:05:08.834Z,2520.00
2023-06-19T06:06:08.893Z,2596.00
2023-06-19T06:07:09.014Z,2604.00
2023-06-19T06:08:08.845Z,2664.00
2023-06-19T06:09:08.850Z,2724.00
2023-06-19T06:10:08.864Z,2720.00
2023-06-19T06:11:08.936Z,2744.00
2023-06-19T06:12:08.847Z,2792.00
2023-06-19T06:13:08.846Z,2824.00
2023-06-19T06:14:10.738Z,2844.00
2023-06-19T06:15:08.896Z,2800.00
2023-06-19T06:16:08.912Z,2612.00
2023-06-19T06:17:08.898Z,2068.00
2023-06-19T06:18:08.912Z,2104.00
2023-06-19T06:19:08.835Z,1840.00
2023-06-19T06:20:08.879Z,2964.00
2023-06-19T06:21:08.837Z,3032.00
2023-06-19T06:22:08.926Z,3024.00
2023-06-19T06:23:08.839Z,3020.00
2023-06-19T06:25:11.485Z,2960.00
2023-06-19T06:26:08.908Z,2984.00
2023-06-19T06:27:08.840Z,2968.00
2023-06-19T06:28:08.940Z,2992.00
2023-06-19T06:29:08.956Z,2936.00
2023-06-19T06:30:08.889Z,2796.00
2023-06-19T06:31:08.887Z,2824.00
2023-06-19T06:32:08.852Z,2924.00
2023-06-19T06:33:08.924Z,3084.00
2023-06-19T06:34:08.871Z,3164.00
2023-06-19T06:35:08.883Z,3224.00
2023-06-19T06:36:09.209Z,3256.00
2023-06-19T06:37:09.075Z,3300.00
2023-06-19T06:38:08.954Z,3292.00
2023-06-19T06:39:08.850Z,3328.00
2023-06-19T06:40:08.852Z,3296.00
2023-06-19T06:41:08.914Z,3180.00
2023-06-19T06:42:08.836Z,3228.00
2023-06-19T06:47:14.047Z,3496.00
2023-06-19T06:48:14.044Z,3392.00
2023-06-19T06:49:13.975Z,3620.00
2023-06-19T06:50:14.045Z,3744.00
2023-06-19T06:51:13.972Z,3784.00
2023-06-19T06:52:14.083Z,3784.00
2023-06-19T06:53:13.977Z,3764.00
2023-06-19T06:54:14.020Z,3756.00
2023-06-19T06:55:14.032Z,3768.00
2023-06-19T06:56:13.996Z,3740.00
2023-06-19T06:57:15.297Z,3744.00
2023-06-19T06:58:14.028Z,3556.00
2023-06-19T06:59:13.984Z,3844.00
2023-06-19T07:00:14.005Z,3912.00
2023-06-19T07:01:14.062Z,3904.00
2023-06-19T07:02:14.041Z,3888.00
2023-06-19T07:03:14.222Z,3720.00
2023-06-19T07:04:13.999Z,3696.00
2023-06-19T07:05:14.035Z,3684.00
2023-06-19T07:06:14.050Z,3412.00
2023-06-19T07:07:14.053Z,3144.00
2023-06-19T07:08:14.037Z,3308.00
2023-06-19T07:09:14.123Z,3976.00
2023-06-19T07:10:14.649Z,4024.00
2023-06-19T07:11:13.997Z,4044.00
2023-06-19T07:12:14.019Z,4032.00
2023-06-19T07:13:14.047Z,4004.00
2023-06-19T07:14:14.021Z,4092.00
2023-06-19T07:15:14.053Z,4012.00
2023-06-19T07:16:14.106Z,4120.00
2023-06-19T07:17:14.135Z,4152.00
2023-06-19T07:18:14.169Z,4172.00
2023-06-19T07:19:14.027Z,4216.00
2023-06-19T07:20:14.023Z,4284.00
2023-06-19T07:21:14.113Z,4024.00
2023-06-19T07:22:14.035Z,4416.00
2023-06-19T07:23:14.225Z,4596.00
2023-06-19T07:24:14.154Z,4488.00
2023-06-19T07:25:14.126Z,4864.00
2023-06-19T07:26:14.058Z,4856.00
2023-06-19T07:27:14.078Z,4984.00
2023-06-19T07:28:14.066Z,4840.00
2023-06-19T07:29:14.051Z,2320.00
2023-06-19T07:30:16.551Z,2212.00
2023-06-19T07:31:14.288Z,4824.00
2023-06-19T07:32:14.328Z,2380.00
2023-06-19T07:33:14.204Z,2456.00
2023-06-19T07:34:14.115Z,3016.00
2023-06-19T07:35:14.112Z,5300.00
2023-06-19T07:36:14.064Z,2788.00
2023-06-19T07:37:14.076Z,5312.00
2023-06-19T07:38:14.085Z,2560.00
2023-06-19T07:39:14.101Z,4088.00
2023-06-19T07:40:14.134Z,2472.00
2023-06-19T07:41:14.105Z,2396.00
2023-06-19T07:42:14.086Z,2220.00
2023-06-19T07:43:14.149Z,2168.00
2023-06-19T07:44:14.103Z,2788.00
2023-06-19T07:45:14.084Z,2308.00
2023-06-19T07:46:14.169Z,2252.00
2023-06-19T07:47:14.302Z,2040.00
2023-06-19T07:48:14.198Z,1980.00
2023-06-19T07:49:16.862Z,2388.00
2023-06-19T07:50:14.183Z,2268.00
2023-06-19T07:51:14.151Z,2296.00
2023-06-19T07:52:14.240Z,2844.00
2023-06-19T07:53:14.228Z,5372.00
2023-06-19T07:54:14.110Z,5456.00
2023-06-19T07:55:14.176Z,5656.00
2023-06-19T07:56:14.262Z,3356.00
2023-06-19T07:57:14.134Z,5468.00
2023-06-19T07:58:14.116Z,5196.00
2023-06-19T07:59:14.170Z,3312.00
2023-06-19T08:00:14.151Z,5664.00
2023-06-19T08:01:14.127Z,5844.00
2023-06-19T08:02:14.279Z,5900.00
2023-06-19T08:03:14.316Z,5788.00
2023-06-19T08:04:14.390Z,5972.00
2023-06-19T08:05:14.266Z,6096.00
2023-06-19T08:06:15.220Z,5832.00
2023-06-19T08:07:14.262Z,3780.00
2023-06-19T08:08:14.126Z,3508.00
2023-06-19T08:09:14.406Z,4444.00
2023-06-19T08:10:15.116Z,4380.00
2023-06-19T08:11:14.238Z,5392.00
2023-06-19T08:12:14.458Z,4568.00
2023-06-19T08:13:14.261Z,3424.00
2023-06-19T08:14:14.188Z,3652.00
2023-06-19T08:15:14.155Z,3352.00
2023-06-19T08:16:14.167Z,2860.00
2023-06-19T08:17:14.205Z,2660.00
2023-06-19T08:18:14.178Z,2636.00
2023-06-19T08:19:14.184Z,2596.00
2023-06-19T08:20:14.199Z,4468.00
2023-06-19T08:21:14.171Z,2900.00
2023-06-19T08:22:14.215Z,5056.00
2023-06-19T08:23:14.184Z,5292.00
2023-06-19T08:24:14.309Z,3272.00
2023-06-19T08:25:14.214Z,4064.00
2023-06-19T08:26:15.032Z,5256.00
2023-06-19T08:27:14.236Z,5108.00
2023-06-19T08:28:14.218Z,3024.00
2023-06-19T08:29:14.175Z,5120.00
2023-06-19T08:30:14.400Z,5000.00
2023-06-19T08:31:14.260Z,4988.00
2023-06-19T08:32:14.266Z,5112.00
2023-06-19T08:33:14.186Z,5188.00
2023-06-19T08:34:14.237Z,5260.00
2023-06-19T08:35:14.280Z,3464.00
2023-06-19T08:36:14.871Z,3420.00
2023-06-19T08:37:14.224Z,3976.00
2023-06-19T08:38:14.328Z,4840.00
2023-06-19T08:39:14.339Z,4312.00
2023-06-19T08:40:14.265Z,4284.00
2023-06-19T08:41:14.219Z,3972.00
2023-06-19T08:42:14.273Z,4508.00
2023-06-19T08:43:14.268Z,3728.00
2023-06-19T08:44:14.273Z,3656.00
2023-06-19T08:45:14.290Z,3760.00
2023-06-19T08:46:14.442Z,3452.00
2023-06-19T08:47:14.279Z,3460.00
2023-06-19T08:48:14.940Z,3364.00
2023-06-19T08:49:14.292Z,3332.00
2023-06-19T08:50:14.253Z,3236.00
2023-06-19T08:51:14.267Z,3864.00
2023-06-19T08:53:14.310Z,2856.00
2023-06-19T08:54:14.305Z,2648.00
2023-06-19T08:55:14.286Z,2564.00
2023-06-19T08:56:14.331Z,3096.00
2023-06-19T08:57:14.295Z,2576.00
2023-06-19T08:58:14.341Z,2628.00
2023-06-19T08:59:14.319Z,2692.00
2023-06-19T09:00:14.599Z,2792.00
2023-06-19T09:01:14.291Z,2808.00
2023-06-19T09:02:14.390Z,2892.00
2023-06-19T09:03:15.089Z,2936.00
2023-06-19T09:04:14.481Z,2920.00
2023-06-19T09:05:14.306Z,2752.00
2023-06-19T09:06:14.600Z,2516.00
2023-06-19T09:07:14.481Z,2420.00
2023-06-19T09:08:14.386Z,2516.00
2023-06-19T09:09:14.919Z,2736.00
2023-06-19T09:10:14.332Z,3008.00
2023-06-19T09:11:14.309Z,3256.00
2023-06-19T09:14:52.638Z,3576.00
2023-06-19T09:15:47.015Z,3672.00
2023-06-19T09:16:46.968Z,4900.00
2023-06-19T09:17:47.019Z,3436.00
2023-06-19T09:18:46.956Z,3480.00
2023-06-19T09:19:46.954Z,3452.00
2023-06-19T09:20:47.065Z,3336.00
2023-06-19T09:21:47.015Z,3252.00
2023-06-19T09:22:47.005Z,3232.00
2023-06-19T09:23:47.001Z,3120.00
2023-06-19T09:24:47.154Z,2956.00
2023-06-19T09:25:47.000Z,2688.00
2023-06-19T09:26:48.970Z,2376.00
2023-06-19T09:27:47.028Z,2140.00
2023-06-19T09:28:47.117Z,1952.00
2023-06-19T09:29:47.021Z,1872.00
2023-06-19T09:30:47.040Z,1844.00
2023-06-19T09:31:47.090Z,1840.00
2023-06-19T09:32:47.047Z,1872.00
2023-06-19T09:34:47.082Z,2064.00
2023-06-19T09:35:47.059Z,2240.00
2023-06-19T09:36:47.001Z,2384.00
2023-06-19T09:37:47.085Z,2444.00
2023-06-19T09:38:47.025Z,2528.00
2023-06-19T09:39:47.991Z,2568.00
2023-06-19T09:40:47.293Z,2596.00
2023-06-19T09:41:48.329Z,2624.00
2023-06-19T09:42:47.081Z,2676.00
2023-06-19T09:43:47.039Z,2684.00
2023-06-19T09:44:47.415Z,2660.00
2023-06-19T09:45:47.142Z,2564.00
2023-06-19T09:46:47.457Z,2452.00
2023-06-19T09:47:50.003Z,2292.00
2023-06-19T09:48:47.742Z,2212.00
2023-06-19T09:49:47.067Z,2204.00
2023-06-19T09:50:47.098Z,2352.00
2023-06-19T09:51:48.495Z,2516.00
2023-06-19T09:52:47.159Z,2724.00
2023-06-19T09:53:47.105Z,2844.00
2023-06-19T09:54:47.120Z,2900.00
2023-06-19T09:55:48.188Z,3064.00
2023-06-19T09:56:47.209Z,3268.00
2023-06-19T09:57:47.758Z,3368.00
2023-06-19T09:59:48.113Z,3116.00
2023-06-19T10:00:47.096Z,2952.00
2023-06-19T10:01:48.039Z,2776.00
2023-06-19T10:02:47.315Z,2776.00
2023-06-19T10:03:47.239Z,2920.00
2023-06-19T10:04:47.175Z,3068.00
2023-06-19T10:05:47.243Z,3316.00
2023-06-19T10:06:47.631Z,3576.00
2023-06-19T10:07:48.176Z,3952.00
2023-06-19T10:08:47.155Z,4216.00
2023-06-19T10:09:47.615Z,4312.00
2023-06-19T10:10:47.136Z,4360.00
2023-06-19T10:11:47.175Z,4328.00
2023-06-19T10:12:47.662Z,4308.00
2023-06-19T10:13:47.096Z,4320.00
2023-06-19T10:14:48.228Z,4300.00
2023-06-19T10:15:47.173Z,4308.00
2023-06-19T10:16:47.295Z,4324.00
2023-06-19T10:17:49.761Z,4308.00
2023-06-19T10:29:37.111Z,2336.00
2023-06-19T10:30:37.394Z,2172.00
2023-06-19T10:31:37.171Z,2036.00
2023-06-19T10:32:36.994Z,1968.00
2023-06-19T10:33:36.921Z,1844.00
2023-06-19T10:34:37.000Z,1876.00
2023-06-19T10:35:36.820Z,2116.00
2023-06-19T10:37:36.814Z,2488.00
2023-06-19T10:38:36.904Z,2392.00
2023-06-19T10:39:36.834Z,2256.00
2023-06-19T10:40:36.890Z,2148.00
2023-06-19T10:41:36.808Z,2216.00
2023-06-19T10:42:36.899Z,2420.00
2023-06-19T10:43:36.884Z,2616.00
2023-06-19T10:44:36.836Z,2772.00
2023-06-19T10:45:36.912Z,2860.00
2023-06-19T10:46:36.846Z,2872.00
2023-06-19T10:47:36.901Z,2876.00
2023-06-19T10:48:36.886Z,2876.00
2023-06-19T10:49:36.834Z,2824.00
2023-06-19T10:50:36.915Z,2828.00
2023-06-19T10:51:36.878Z,2884.00
2023-06-19T10:52:36.919Z,2996.00
2023-06-19T10:53:36.888Z,3084.00
2023-06-19T10:54:36.906Z,3076.00
2023-06-19T10:55:36.876Z,3244.00
2023-06-19T10:56:36.891Z,3352.00
2023-06-19T10:57:36.884Z,3356.00
2023-06-19T10:58:36.846Z,3120.00
2023-06-19T10:59:37.577Z,2976.00
2023-06-19T11:00:37.594Z,3060.00
2023-06-19T11:01:36.953Z,3240.00
2023-06-19T11:02:37.013Z,3500.00
2023-06-19T11:03:37.003Z,3620.00
2023-06-19T11:04:36.854Z,3676.00
2023-06-19T11:05:36.921Z,3664.00
2023-06-19T11:06:36.863Z,3588.00
2023-06-19T11:07:37.027Z,3444.00
2023-06-19T11:08:36.866Z,3352.00
2023-06-19T11:09:36.871Z,3208.00
2023-06-19T11:10:36.959Z,3084.00
2023-06-19T11:11:36.939Z,3004.00
2023-06-19T11:12:36.931Z,3004.00
2023-06-19T11:13:36.951Z,3076.00
2023-06-19T11:14:36.966Z,3204.00
2023-06-19T11:15:37.072Z,3284.00
2023-06-19T11:16:37.075Z,3204.00
2023-06-19T11:17:37.019Z,3060.00
2023-06-19T11:18:36.905Z,2944.00
2023-06-19T11:19:36.916Z,2840.00
2023-06-19T11:20:36.904Z,2892.00
2023-06-19T11:21:36.926Z,3032.00
2023-06-19T11:22:36.926Z,3088.00
2023-06-19T11:23:36.971Z,3052.00
2023-06-19T11:24:37.039Z,3156.00
2023-06-19T11:25:36.904Z,3200.00
2023-06-19T11:26:36.914Z,3204.00
2023-06-19T11:27:36.962Z,3028.00
2023-06-19T11:29:36.957Z,2584.00
2023-06-19T11:30:36.990Z,2476.00
2023-06-19T11:31:36.920Z,2472.00
2023-06-19T11:32:36.961Z,2548.00
2023-06-19T11:33:36.959Z,2596.00
2023-06-19T11:34:36.964Z,2704.00
2023-06-19T11:35:36.955Z,2732.00
2023-06-19T11:36:36.990Z,2812.00
2023-06-19T11:37:36.932Z,3048.00
2023-06-19T11:38:36.957Z,3480.00
2023-06-19T11:39:36.996Z,3948.00
2023-06-19T11:40:36.955Z,4408.00
2023-06-19T11:41:36.949Z,4720.00
2023-06-19T11:42:36.946Z,5108.00
2023-06-19T11:43:37.018Z,5568.00
2023-06-19T11:44:39.051Z,5892.00
2023-06-19T11:45:37.022Z,6016.00
2023-06-19T11:46:36.991Z,5440.00
2023-06-19T11:47:36.984Z,4896.00
2023-06-19T11:48:36.997Z,4964.00
2023-06-19T11:49:37.007Z,6744.00
2023-06-19T11:50:37.004Z,8148.00
2023-06-19T11:51:37.025Z,8840.00
2023-06-19T11:52:36.974Z,7984.00
2023-06-19T11:53:37.006Z,8324.00
2023-06-19T11:54:37.031Z,7388.00
2023-06-19T11:55:39.486Z,5592.00
2023-06-19T11:56:36.998Z,6392.00
2023-06-19T11:57:37.004Z,7472.00
2023-06-19T11:58:36.991Z,5544.00
2023-06-19T11:59:37.029Z,4176.00
2023-06-19T12:00:37.042Z,4592.00
2023-06-19T12:01:37.029Z,4776.00
2023-06-19T12:02:37.125Z,4964.00
2023-06-19T12:03:40.519Z,5016.00
2023-06-19T12:04:37.189Z,5104.00
2023-06-19T12:05:37.055Z,5336.00
2023-06-19T12:06:37.020Z,5512.00
2023-06-19T12:07:37.073Z,8620.00
2023-06-19T12:08:37.041Z,8760.00
2023-06-19T12:09:37.089Z,9280.00
2023-06-19T12:10:37.038Z,9324.00
2023-06-19T12:11:37.044Z,8820.00
2023-06-19T12:12:37.054Z,8412.00
2023-06-19T12:13:37.146Z,8008.00
2023-06-19T12:14:37.105Z,8544.00
2023-06-19T12:15:38.041Z,7952.00
2023-06-19T12:16:37.065Z,7664.00
2023-06-19T12:17:37.180Z,8232.00
2023-06-19T12:18:37.162Z,5828.00
2023-06-19T12:19:37.103Z,4736.00
2023-06-19T12:20:37.205Z,4440.00
2023-06-19T12:21:40.245Z,4372.00
2023-06-19T12:22:37.143Z,4280.00
2023-06-19T12:23:37.124Z,4320.00
2023-06-19T12:24:37.189Z,4688.00
2023-06-19T12:25:37.205Z,5192.00
2023-06-19T12:26:37.119Z,5756.00
2023-06-19T12:27:37.113Z,5932.00
2023-06-19T12:28:37.116Z,6184.00
2023-06-19T12:29:37.220Z,9716.00
2023-06-19T12:30:37.234Z,9392.00
2023-06-19T12:31:37.253Z,9172.00
2023-06-19T12:32:37.184Z,8736.00
2023-06-19T12:33:37.172Z,5084.00
2023-06-19T12:34:37.208Z,5100.00
2023-06-19T12:35:37.165Z,5208.00
2023-06-19T12:36:37.182Z,5380.00
2023-06-19T12:37:37.213Z,7788.00
2023-06-19T12:38:37.165Z,8660.00
2023-06-19T12:39:37.223Z,4456.00
2023-06-19T12:40:37.224Z,5164.00
2023-06-19T12:41:37.279Z,5896.00
2023-06-19T12:42:37.210Z,7296.00
2023-06-19T12:43:37.221Z,5788.00
2023-06-19T12:44:37.229Z,5700.00
2023-06-19T12:45:37.208Z,7680.00
2023-06-19T12:46:37.332Z,5548.00
2023-06-19T12:47:37.269Z,7028.00
2023-06-19T12:48:37.250Z,5212.00
2023-06-19T12:49:37.238Z,5656.00
2023-06-19T12:53:34.526Z,13516.00
2023-06-19T12:54:34.578Z,13900.00
2023-06-19T12:55:37.190Z,12508.00
2023-06-19T12:56:34.506Z,11252.00
2023-06-19T12:57:34.534Z,5852.00
2023-06-19T12:58:34.527Z,12512.00
2023-06-19T12:59:34.503Z,5764.00
2023-06-19T13:00:34.512Z,11040.00
2023-06-19T13:01:34.574Z,5792.00
2023-06-19T13:02:34.646Z,6404.00
2023-06-19T13:03:34.681Z,6300.00
2023-06-19T13:04:34.598Z,5220.00
2023-06-19T13:05:34.550Z,8072.00
2023-06-19T13:06:34.550Z,5400.00
2023-06-19T13:07:34.569Z,5328.00
2023-06-19T13:08:34.557Z,5336.00
2023-06-19T13:09:34.609Z,5092.00
2023-06-19T13:10:34.579Z,5224.00
2023-06-19T13:11:34.585Z,12164.00
2023-06-19T13:12:34.656Z,4956.00
2023-06-19T13:13:34.643Z,5232.00
2023-06-19T13:14:34.594Z,7392.00
2023-06-19T13:15:34.612Z,15268.00
2023-06-19T13:16:46.031Z,5700.00
2023-06-19T13:17:34.614Z,7772.00
2023-06-19T13:18:34.622Z,12568.00
2023-06-19T13:19:34.750Z,13884.00
2023-06-19T13:20:34.617Z,15516.00
2023-06-19T13:21:34.714Z,14808.00
2023-06-19T13:22:34.642Z,16924.00
2023-06-19T13:23:34.657Z,16324.00
2023-06-19T13:24:34.747Z,7212.00
2023-06-19T13:25:35.360Z,6600.00
2023-06-19T13:26:34.722Z,13732.00
2023-06-19T13:27:34.689Z,9488.00
2023-06-19T13:28:34.701Z,11532.00
2023-06-19T13:29:34.748Z,7136.00
2023-06-19T13:30:34.687Z,16280.00
2023-06-19T13:31:34.852Z,14340.00
2023-06-19T13:32:34.753Z,7616.00
2023-06-19T13:33:34.872Z,5908.00
2023-06-19T13:34:34.708Z,4492.00
2023-06-19T13:35:34.767Z,3992.00
2023-06-19T13:36:34.740Z,3864.00
2023-06-19T13:37:34.759Z,3840.00
2023-06-19T13:38:35.365Z,4516.00
2023-06-19T13:39:34.738Z,10312.00
2023-06-19T13:40:34.749Z,6552.00
2023-06-19T13:41:34.821Z,4364.00
2023-06-19T13:42:34.813Z,4364.00
2023-06-19T13:43:34.790Z,8744.00
2023-06-19T13:44:34.793Z,8168.00
2023-06-19T13:45:34.778Z,4496.00
2023-06-19T13:46:34.938Z,4064.00
2023-06-19T13:47:34.896Z,4684.00
2023-06-19T13:48:34.769Z,5696.00
2023-06-19T13:49:34.865Z,11576.00
2023-06-19T13:50:34.803Z,9756.00
2023-06-19T13:51:34.851Z,9752.00
2023-06-19T13:52:34.794Z,10868.00
2023-06-19T13:53:34.828Z,11536.00
2023-06-19T13:54:34.835Z,11772.00
2023-06-19T13:55:34.825Z,10712.00
2023-06-19T13:56:34.930Z,11844.00
2023-06-19T13:57:34.867Z,10060.00
2023-06-19T13:58:34.895Z,10308.00
2023-06-19T13:59:34.856Z,9860.00
2023-06-19T14:00:34.886Z,8260.00
2023-06-19T14:01:34.943Z,9780.00
2023-06-19T14:02:34.956Z,9260.00
2023-06-19T14:03:34.988Z,8692.00
2023-06-19T14:04:34.880Z,9064.00
2023-06-19T14:05:36.615Z,5748.00
2023-06-19T14:06:34.878Z,5376.00
2023-06-19T14:07:34.881Z,5152.00
2023-06-19T14:08:34.917Z,5256.00
2023-06-19T14:09:34.906Z,5740.00
2023-06-19T14:10:34.925Z,7168.00
2023-06-19T14:11:34.901Z,7016.00
2023-06-19T14:12:34.917Z,6608.00
2023-06-19T14:13:35.051Z,6772.00
2023-06-19T14:14:34.972Z,7812.00
2023-06-19T14:15:34.910Z,10416.00
2023-06-19T14:16:35.005Z,12672.00
2023-06-19T14:17:34.970Z,16388.00
2023-06-19T14:18:34.950Z,19968.00
2023-06-19T14:19:34.936Z,20480.00
2023-06-19T14:20:34.951Z,19008.00
2023-06-19T14:21:34.999Z,20800.00
2023-06-19T14:22:34.969Z,20736.00
2023-06-19T14:23:34.966Z,21600.00
2023-06-19T14:24:35.088Z,21696.00
2023-06-19T14:25:38.042Z,21344.00
2023-06-19T14:26:35.000Z,21280.00
2023-06-19T14:27:35.046Z,21120.00
2023-06-19T14:28:35.002Z,21120.00
2023-06-19T14:29:35.025Z,20928.00
2023-06-19T14:30:35.094Z,20896.00
2023-06-19T14:31:35.032Z,20480.00
2023-06-19T14:32:35.048Z,20064.00
2023-06-19T14:33:35.095Z,19424.00
2023-06-19T14:34:35.052Z,19232.00
2023-06-19T14:35:35.049Z,19328.00
2023-06-19T14:36:35.059Z,19744.00
2023-06-19T14:37:35.189Z,19712.00
2023-06-19T14:38:35.374Z,19520.00
2023-06-19T14:39:35.096Z,18496.00
2023-06-19T14:40:35.077Z,18112.00
2023-06-19T14:41:35.082Z,5872.00
2023-06-19T14:42:35.164Z,5220.00
2023-06-19T14:43:35.105Z,5476.00
2023-06-19T14:44:35.129Z,4828.00
2023-06-19T14:45:35.198Z,4960.00
2023-06-19T14:46:39.454Z,5568.00
2023-06-19T14:47:35.343Z,11864.00
2023-06-19T14:48:35.193Z,6600.00
2023-06-19T14:49:35.202Z,5012.00
2023-06-19T14:50:35.212Z,5288.00
2023-06-19T14:51:35.211Z,10120.00
2023-06-19T14:52:35.246Z,16148.00
2023-06-19T14:53:35.220Z,15932.00
2023-06-19T14:54:35.206Z,15660.00
2023-06-19T14:55:35.210Z,15300.00
2023-06-19T14:56:35.273Z,15084.00
2023-06-19T14:57:35.312Z,14920.00
2023-06-19T14:58:35.245Z,15024.00
2023-06-19T14:59:35.302Z,14724.00
2023-06-19T15:00:35.250Z,6468.00
2023-06-19T15:01:35.369Z,6548.00
2023-06-19T15:02:36.751Z,6004.00
2023-06-19T15:03:35.355Z,13936.00
2023-06-19T15:04:35.290Z,8208.00
2023-06-19T15:05:35.328Z,14192.00
2023-06-19T15:06:35.316Z,13468.00
2023-06-19T15:07:35.339Z,13104.00
2023-06-19T15:08:35.417Z,13096.00
2023-06-19T15:09:35.334Z,6724.00
2023-06-19T15:10:35.354Z,6340.00
2023-06-19T15:11:35.352Z,12820.00
2023-06-19T15:12:35.403Z,10776.00
2023-06-19T15:14:35.392Z,4684.00
2023-06-19T15:15:35.383Z,10704.00
2023-06-19T15:16:37.699Z,9756.00
2023-06-19T15:17:35.556Z,13320.00
2023-06-19T15:18:36.494Z,13092.00
2023-06-19T15:19:35.434Z,12828.00
2023-06-19T15:20:35.415Z,12444.00
2023-06-19T15:21:35.429Z,12184.00
2023-06-19T15:22:35.504Z,11884.00
2023-06-19T15:23:35.456Z,11788.00
2023-06-19T15:24:35.478Z,11604.00
2023-06-19T15:25:35.444Z,11356.00
2023-06-19T15:26:37.630Z,11376.00
2023-06-19T15:27:35.522Z,11724.00
2023-06-19T15:28:35.504Z,12832.00
2023-06-19T15:29:35.490Z,15316.00
2023-06-19T15:30:35.483Z,19264.00
2023-06-19T15:31:35.512Z,23008.00
2023-06-19T15:32:35.669Z,24192.00
2023-06-19T15:33:35.560Z,23200.00
2023-06-19T15:34:35.542Z,16196.00
2023-06-19T15:35:35.523Z,8652.00
2023-06-19T15:36:35.529Z,7216.00
2023-06-19T15:37:35.576Z,6776.00
2023-06-19T15:38:35.568Z,6416.00
2023-06-19T15:39:35.563Z,6124.00
2023-06-19T15:40:35.571Z,5964.00
2023-06-19T15:41:35.589Z,5552.00
2023-06-19T15:42:35.647Z,4880.00
2023-06-19T15:43:35.864Z,5508.00
2023-06-19T15:44:35.601Z,4204.00
2023-06-19T15:45:35.601Z,4092.00
2023-06-19T15:46:35.697Z,4192.00
2023-06-19T15:47:35.710Z,5228.00
2023-06-19T15:48:35.681Z,5644.00
2023-06-19T15:49:35.647Z,5528.00
2023-06-19T15:50:35.697Z,5344.00
2023-06-19T15:51:35.657Z,5208.00
2023-06-19T15:52:35.663Z,5052.00
2023-06-19T15:53:35.716Z,5164.00
2023-06-19T15:54:35.657Z,5032.00
2023-06-19T15:55:35.675Z,4944.00
2023-06-19T15:56:35.673Z,4956.00
2023-06-19T15:57:35.702Z,4856.00
2023-06-19T15:58:35.746Z,4868.00
2023-06-19T15:59:35.697Z,4852.00
2023-06-19T16:00:35.739Z,4672.00
2023-06-19T16:01:35.736Z,4620.00
2023-06-19T16:02:35.784Z,4564.00
2023-06-19T16:03:35.787Z,4484.00
2023-06-19T16:04:35.901Z,4412.00
2023-06-19T16:07:08.353Z,4228.00
2023-06-19T16:08:08.295Z,4160.00
2023-06-19T16:09:08.409Z,4112.00
2023-06-19T16:10:08.308Z,4068.00
2023-06-19T16:11:08.312Z,4060.00
2023-06-19T16:12:08.339Z,4056.00
2023-06-19T16:13:08.330Z,4036.00
2023-06-19T16:14:08.399Z,4016.00
2023-06-19T16:15:08.334Z,3976.00
2023-06-19T16:16:08.367Z,3876.00
2023-06-19T16:17:08.352Z,3580.00
2023-06-19T16:28:52.933Z,3516.00
2023-06-19T16:29:52.888Z,3536.00
2023-06-19T16:30:52.917Z,3480.00
2023-06-19T16:32:04.970Z,3584.00
2023-06-19T16:32:52.868Z,3580.00
2023-06-19T16:33:52.906Z,3580.00
2023-06-19T16:34:52.887Z,3500.00
2023-06-19T16:35:52.875Z,3352.00
2023-06-19T16:36:52.867Z,3300.00
2023-06-19T16:37:52.897Z,3300.00
2023-06-19T16:38:52.890Z,3256.00
2023-06-19T16:39:52.896Z,3288.00
2023-06-19T16:40:52.926Z,3200.00
2023-06-19T16:41:52.876Z,3152.00
2023-06-19T16:42:52.928Z,3012.00
2023-06-19T16:43:52.928Z,2764.00
2023-06-19T16:44:52.914Z,2524.00
2023-06-19T16:45:52.898Z,2400.00
2023-06-19T16:46:52.997Z,2260.00
2023-06-19T16:47:52.960Z,2164.00
2023-06-19T16:48:52.919Z,2008.00
2023-06-19T16:49:52.936Z,1992.00
2023-06-19T16:50:52.968Z,2128.00
2023-06-19T16:51:52.915Z,2196.00
2023-06-19T16:52:52.955Z,2244.00
2023-06-19T16:53:53.034Z,2324.00
2023-06-19T16:54:52.947Z,2488.00
2023-06-19T16:55:52.944Z,2604.00
2023-06-19T16:56:52.970Z,2592.00
2023-06-19T16:57:52.985Z,2552.00
2023-06-19T16:58:52.986Z,2456.00